LPFL/FLW METAR and TAF weather

Enter ICAO airport designator
Station Type Date Time Source
LPFL METAR 2023/02/05 14:00 UTC NOAA

LPFL 051400Z 17014KT 2500 RA SCT004 SCT007 BKN012 16/16 Q1029


Station Type Date Time Source
LPFL Decoded METAR 2023/02/05 14:00 UTC NOAA

Flores Acores , Portugal (LPFL) 39-27N 031-08W 29M
Feb 05, 2023 - 09:00 AM EST / 2023.02.05 1400 UTC
Wind: from the S (170 degrees) at 16 MPH (14 KT):0
Visibility: 1 mile(s):0
Sky conditions: mostly cloudy
Weather: rain
Temperature: 60 F (16 C)
Dew Point: 60 F (16 C)
Relative Humidity: 100%
Pressure (altimeter): 30.39 in. Hg (1029 hPa)
ob: LPFL 051400Z 17014KT 2500 RA SCT004 SCT007 BKN012 16/16 Q1029
cycle: 14

Station Type Date Time Source
LPFL TAF UTC NOAA

Error!

Example: see airport list